Time;durP1;ratioP1;P1;durP2;ratioP2;P2;SDS_P1;SDS_P2;PMS_P1;PMS_P2;Temp;Humidity;BMP_temperature;BMP_pressure;BME280_temperature;BME280_humidity;BME280_pressure;Samples;Min_cycle;Max_cycle;Signal;HPM_P1;HPM_P2
2022/01/18 00:01:20;;;;;;;;;26.50;23.25;;;;;4.56;78.10;103006.97;5036646;28;45431;-76
2022/01/18 00:03:45;;;;;;;;;9.75;8.50;;;;;4.53;77.68;103019.91;5038793;28;45378;-76
2022/01/18 00:06:11;;;;;;;;;23.75;23.75;;;;;4.49;77.93;103012.75;5050966;28;45317;-76
2022/01/18 00:08:37;;;;;;;;;22.25;19.50;;;;;4.51;78.21;103001.53;5039126;28;45525;-76
2022/01/18 00:11:03;;;;;;;;;24.75;21.50;;;;;4.32;77.78;102994.56;5052461;28;45477;-74
2022/01/18 00:13:46;;;;;;;;;26.00;22.00;;;;;4.42;78.03;103002.00;5023652;28;45370;-77
2022/01/18 00:16:37;;;;;;;;;20.50;19.50;;;;;4.41;77.79;103013.31;5016234;28;45368;-77
2022/01/18 00:19:08;;;;;;;;;26.25;18.50;;;;;4.40;78.17;102995.81;5016883;28;45397;-75
2022/01/18 00:22:08;;;;;;;;;24.25;20.50;;;;;4.26;77.97;102986.44;5035890;28;46198;-77
2022/01/18 00:24:33;;;;;;;;;23.25;18.00;;;;;4.38;77.83;103005.31;5034888;28;45331;-75
2022/01/18 00:26:59;;;;;;;;;23.75;21.50;;;;;4.38;77.59;103005.31;5035478;28;45367;-76
2022/01/18 00:29:27;;;;;;;;;28.00;19.00;;;;;4.38;77.93;102992.22;5036616;28;45348;-75
2022/01/18 00:34:33;;;;;;;;;22.00;17.50;;;;;4.34;78.19;102999.88;5040806;28;45494;-76
2022/01/18 00:39:31;;;;;;;;;22.00;21.00;;;;;4.26;78.23;102975.97;5055000;28;45446;-77
2022/01/18 00:41:58;;;;;;;;;25.50;21.25;;;;;4.31;78.40;102998.00;5055002;28;46953;-76
2022/01/18 00:44:23;;;;;;;;;21.75;18.50;;;;;4.34;78.66;102982.47;5055441;28;45540;-76
2022/01/18 00:46:49;;;;;;;;;21.75;20.50;;;;;4.34;78.59;102971.97;5055322;28;45474;-76
2022/01/18 00:49:15;;;;;;;;;28.50;23.50;;;;;4.34;78.68;102986.78;5037008;28;45612;-76
2022/01/18 00:51:43;;;;;;;;;21.25;21.25;;;;;4.30;78.31;102991.00;5035531;28;45988;-77
2022/01/18 00:54:18;;;;;;;;;23.00;18.75;;;;;4.30;78.40;102991.00;5035230;28;45465;-75
2022/01/18 00:56:45;;;;;;;;;24.50;23.00;;;;;4.30;78.66;102992.69;5034479;28;45497;-76
2022/01/18 00:59:10;;;;;;;;;24.75;19.75;;;;;4.30;78.22;102997.94;5035487;28;45538;-75
2022/01/18 01:01:36;;;;;;;;;30.75;21.25;;;;;4.26;78.78;102975.97;5018365;28;46868;-76
2022/01/18 01:04:04;;;;;;;;;29.00;24.25;;;;;4.27;79.08;102990.84;5041629;28;45486;-75
2022/01/18 01:06:31;;;;;;;;;26.50;24.25;;;;;4.25;78.88;102993.41;5034659;28;45483;-75
2022/01/18 01:08:57;;;;;;;;;25.50;21.00;;;;;4.25;78.47;102980.31;5035195;28;45520;-75
2022/01/18 01:11:23;;;;;;;;;25.00;19.00;;;;;4.21;78.89;102977.50;5033615;28;46061;-76
2022/01/18 01:13:51;;;;;;;;;24.00;22.00;;;;;4.23;78.83;102991.53;5034258;28;45462;-75
2022/01/18 01:43:36;;;;;;;;;32.50;25.50;;;;;3.97;80.15;102980.78;5034300;28;45821;-75
2022/01/18 01:46:02;;;;;;;;;35.25;29.00;;;;;3.90;80.38;102994.41;5034315;28;45458;-74
2022/01/18 01:48:28;;;;;;;;;24.75;23.50;;;;;3.88;80.44;102986.50;5038396;28;45537;-75
2022/01/18 01:51:01;;;;;;;;;26.00;21.00;;;;;3.85;80.95;102981.13;5034302;28;45405;-74
2022/01/18 01:53:27;;;;;;;;;15.00;12.00;;;;;3.86;80.51;102997.75;5034407;28;47002;-75
2022/01/18 01:55:53;;;;;;;;;33.75;26.75;;;;;3.82;80.84;102993.19;5033712;28;45431;-76
2022/01/18 01:58:20;;;;;;;;;29.00;26.00;;;;;3.77;81.25;102995.59;5033996;28;45421;-75
2022/01/18 02:00:50;;;;;;;;;22.00;18.25;;;;;3.74;81.14;103006.78;5016546;28;45402;-75
2022/01/18 02:03:16;;;;;;;;;18.50;14.75;;;;;3.71;81.17;102995.31;5034760;28;46342;-75
2022/01/18 02:05:42;;;;;;;;;24.50;22.00;;;;;3.65;80.75;102995.91;5036300;28;45435;-75
2022/01/18 02:08:08;;;;;;;;;28.50;24.00;;;;;3.59;81.57;103003.47;5036178;28;45458;-75
2022/01/18 02:10:38;;;;;;;;;35.75;25.00;;;;;3.54;81.69;103004.97;5033666;28;45317;-74
2022/01/18 02:13:06;;;;;;;;;27.25;21.50;;;;;3.49;81.63;102994.28;5034111;28;47277;-75
2022/01/18 02:15:32;;;;;;;;;27.75;24.50;;;;;3.48;81.37;103002.94;5033982;28;45589;-76
2022/01/18 02:23:31;;;;;;;;;25.00;22.00;;;;;3.28;81.74;102996.78;5036841;28;45862;-74
2022/01/18 02:25:57;;;;;;;;;24.50;18.00;;;;;3.21;82.67;102997.28;5036846;28;45360;-75
2022/01/18 02:28:24;;;;;;;;;28.50;23.50;;;;;3.14;82.49;103000.41;5037985;28;45383;-75
2022/01/18 02:30:50;;;;;;;;;22.25;20.50;;;;;3.07;82.65;102987.84;5037217;28;45407;-76
2022/01/18 02:33:16;;;;;;;;;27.00;19.75;;;;;2.99;83.12;102997.94;5037397;28;45424;-75
2022/01/18 02:35:42;;;;;;;;;19.00;13.00;;;;;2.85;83.20;102981.56;5040517;28;45331;-76
2022/01/18 02:38:07;;;;;;;;;19.50;15.25;;;;;2.94;83.75;102992.47;5048848;28;45582;-75
2022/01/18 02:40:33;;;;;;;;;24.50;19.50;;;;;2.93;83.66;102990.72;5058236;28;45355;-76
2022/01/18 02:43:46;;;;;;;;;24.75;21.25;;;;;2.95;82.93;102993.41;5056914;28;46303;-75
2022/01/18 02:45:48;;;;;;;;;23.75;18.75;;;;;2.97;83.04;102990.03;5036342;28;45650;-75
2022/01/18 02:48:14;;;;;;;;;18.50;18.50;;;;;2.97;83.15;102973.44;5037403;28;45398;-75
2022/01/18 02:50:40;;;;;;;;;32.75;24.50;;;;;2.99;83.41;102985.78;5053230;28;45384;-75
2022/01/18 02:53:05;;;;;;;;;30.00;25.00;;;;;3.00;83.01;102990.16;5036805;28;45454;-75
2022/01/18 02:55:30;;;;;;;;;31.50;20.50;;;;;2.99;83.27;102977.94;5036877;28;49563;-75
2022/01/18 02:58:03;;;;;;;;;30.00;25.75;;;;;3.00;83.26;102982.31;5037284;28;45621;-76
2022/01/18 03:00:43;;;;;;;;;21.50;18.75;;;;;2.88;83.39;102981.72;5043477;28;45700;-75
2022/01/18 03:03:17;;;;;;;;;27.00;21.50;;;;;2.99;83.01;102991.00;5058642;28;45979;-75
2022/01/18 03:05:45;;;;;;;;;22.00;18.50;;;;;2.96;82.69;102977.78;5059103;28;45355;-76
2022/01/18 03:08:13;;;;;;;;;26.75;18.25;;;;;3.01;82.90;102975.41;5034587;28;45527;-76
2022/01/18 03:10:40;;;;;;;;;26.25;23.50;;;;;3.05;82.63;102973.81;5037913;28;45530;-76
2022/01/18 03:13:07;;;;;;;;;27.50;22.00;;;;;3.05;83.18;102958.16;5037124;28;45521;-75
2022/01/18 03:15:34;;;;;;;;;24.75;21.00;;;;;3.06;83.31;102958.22;5036428;28;45501;-75
2022/01/18 03:18:03;;;;;;;;;26.50;18.50;;;;;3.09;83.11;102954.88;5045595;28;45399;-75
2022/01/18 03:20:30;;;;;;;;;26.00;20.25;;;;;3.06;83.11;102931.22;5057393;28;45409;-75
2022/01/18 03:22:55;;;;;;;;;28.75;24.00;;;;;3.04;82.69;102941.59;5057208;28;45412;-75
2022/01/18 03:28:08;;;;;;;;;20.75;20.50;;;;;3.05;82.62;102932.91;5037448;28;45475;-76
2022/01/18 03:30:47;;;;;;;;;20.75;20.50;;;;;3.08;82.87;102947.84;5035860;28;45491;-75
2022/01/18 03:33:18;;;;;;;;;23.00;20.00;;;;;3.10;82.36;102944.50;5036648;28;46102;-76
2022/01/18 03:35:46;;;;;;;;;33.50;23.25;;;;;3.09;82.53;102940.06;5035964;28;45404;-75
2022/01/18 03:38:13;;;;;;;;;28.50;23.00;;;;;3.08;83.43;102951.34;5039227;28;45344;-74
2022/01/18 03:40:39;;;;;;;;;31.50;27.75;;;;;3.09;82.70;102952.25;5040393;28;45332;-74
2022/01/18 03:43:07;;;;;;;;;16.50;13.75;;;;;3.00;82.96;102927.44;5019943;28;46365;-77
2022/01/18 03:45:42;;;;;;;;;28.00;23.75;;;;;3.09;83.48;102944.41;5036335;28;45479;-76
2022/01/18 03:48:18;;;;;;;;;21.75;21.75;;;;;3.11;83.63;102951.53;5036792;28;45446;-76
2022/01/18 03:50:43;;;;;;;;;24.75;19.25;;;;;3.12;82.80;102948.06;5036292;28;45520;-76
2022/01/18 03:53:11;;;;;;;;;21.50;15.00;;;;;3.10;83.35;102936.66;5036029;28;46154;-77
2022/01/18 03:55:36;;;;;;;;;29.50;21.00;;;;;3.12;82.48;102955.91;5036109;28;45388;-77
2022/01/18 03:58:03;;;;;;;;;28.25;20.50;;;;;3.12;82.90;102940.22;5036790;28;45625;-76
2022/01/18 04:00:30;;;;;;;;;20.25;19.25;;;;;3.08;82.80;102926.94;5036574;28;45706;-77
2022/01/18 04:03:00;;;;;;;;;19.25;16.50;;;;;3.12;82.32;102944.56;5048376;28;45506;-77
2022/01/18 04:05:26;;;;;;;;;28.25;22.00;;;;;3.09;82.73;102932.25;5055853;28;45326;-74
2022/01/18 04:07:51;;;;;;;;;21.75;17.00;;;;;3.12;82.72;102928.88;5056752;28;45371;-75
2022/01/18 04:10:17;;;;;;;;;22.25;18.75;;;;;3.07;82.60;102930.34;5043394;28;45445;-75
2022/01/18 04:12:43;;;;;;;;;27.00;24.00;;;;;3.14;82.47;102940.28;5039089;28;45549;-75
2022/01/18 04:15:12;;;;;;;;;28.50;19.50;;;;;3.12;83.01;102934.13;5037113;28;45428;-75
2022/01/18 04:30:59;;;;;;;;;28.25;24.00;;;;;2.93;83.26;102922.78;5035992;28;45574;-76
2022/01/18 04:33:24;;;;;;;;;38.00;28.25;;;;;2.95;83.93;102930.69;5035031;28;45497;-75
2022/01/18 04:35:50;;;;;;;;;35.00;27.75;;;;;2.93;83.37;102933.22;5035450;28;45554;-75
2022/01/18 04:38:15;;;;;;;;;30.00;25.25;;;;;2.94;83.26;102934.13;5036193;28;45537;-75
2022/01/18 04:40:44;;;;;;;;;27.25;24.00;;;;;2.94;83.56;102936.72;5039278;28;45451;-75
2022/01/18 04:48:30;;;;;;;;;27.00;22.75;;;;;2.92;83.43;102915.75;5036201;28;45434;-75
2022/01/18 04:50:59;;;;;;;;;30.00;20.50;;;;;2.88;83.48;102919.03;5035743;28;45324;-74
2022/01/18 04:53:29;;;;;;;;;31.00;24.00;;;;;2.90;84.05;102921.72;5035622;28;45528;-76
2022/01/18 04:55:56;;;;;;;;;27.50;21.75;;;;;2.91;84.29;102913.94;5036474;28;45486;-74
2022/01/18 04:58:24;;;;;;;;;26.25;22.00;;;;;2.89;83.67;102926.06;5037484;28;45439;-75
2022/01/18 05:00:52;;;;;;;;;34.50;27.00;;;;;2.89;84.53;102923.44;5038435;28;45407;-77
2022/01/18 05:03:17;;;;;;;;;23.00;20.00;;;;;2.87;83.90;102922.47;5036862;28;45439;-74
2022/01/18 05:05:44;;;;;;;;;34.25;25.00;;;;;2.83;84.59;102918.78;5035562;28;45331;-75
2022/01/18 05:08:13;;;;;;;;;33.00;27.00;;;;;2.84;84.48;102923.22;5036662;28;45433;-76
2022/01/18 05:10:40;;;;;;;;;35.50;33.00;;;;;2.84;84.65;102917.09;5020539;28;45451;-75
2022/01/18 05:13:22;;;;;;;;;43.00;29.75;;;;;2.82;85.12;102914.41;5040666;28;47195;-75
2022/01/18 05:15:56;;;;;;;;;41.75;30.50;;;;;2.82;84.77;102918.72;5035909;28;45418;-74
2022/01/18 05:23:22;;;;;;;;;39.75;33.00;;;;;2.87;85.32;102932.00;5018086;28;45378;-75
2022/01/18 05:25:47;;;;;;;;;41.50;29.50;;;;;2.88;85.87;102929.47;5034655;28;45413;-76
2022/01/18 05:28:13;;;;;;;;;39.75;28.50;;;;;2.90;85.94;102938.31;5017510;28;45445;-76
2022/01/18 05:30:40;;;;;;;;;29.75;19.00;;;;;2.91;85.74;102934.84;5035326;28;45514;-75
2022/01/18 05:33:06;;;;;;;;;30.25;27.50;;;;;2.90;84.94;102933.06;5033618;28;45652;-76
2022/01/18 05:35:34;;;;;;;;;34.50;29.00;;;;;2.92;85.05;102936.66;5015698;28;45412;-76
2022/01/18 05:37:59;;;;;;;;;31.00;25.25;;;;;2.89;85.47;102927.78;5017404;28;45530;-75
2022/01/18 05:40:25;;;;;;;;;41.25;30.00;;;;;2.90;85.81;102930.47;5034125;28;45583;-76
2022/01/18 05:42:51;;;;;;;;;33.75;29.50;;;;;2.92;85.63;102925.31;5038076;28;46099;-75
2022/01/18 05:45:17;;;;;;;;;43.75;32.00;;;;;2.94;85.59;102919.31;5021069;28;45453;-75
2022/01/18 05:47:43;;;;;;;;;36.75;24.25;;;;;2.94;85.94;102903.66;5034777;28;45441;-76
2022/01/18 05:50:10;;;;;;;;;33.25;25.75;;;;;2.95;85.35;102909.78;5035329;28;45319;-75
2022/01/18 05:52:36;;;;;;;;;29.75;23.50;;;;;2.97;85.81;102902.91;5033482;28;46130;-75
2022/01/18 05:55:02;;;;;;;;;30.75;24.75;;;;;2.94;85.55;102906.25;5034647;28;45424;-75
2022/01/18 05:57:28;;;;;;;;;33.25;22.50;;;;;2.94;85.93;102905.38;5034359;28;45495;-76
2022/01/18 06:00:00;;;;;;;;;24.75;22.00;;;;;2.93;85.71;102907.09;5034810;28;45352;-76
2022/01/18 06:07:41;;;;;;;;;37.75;25.25;;;;;2.91;85.51;102918.28;5034257;28;45352;-75
2022/01/18 06:10:07;;;;;;;;;19.25;16.00;;;;;2.89;85.10;102910.38;5034680;28;45479;-76
2022/01/18 06:12:32;;;;;;;;;22.00;17.00;;;;;2.87;85.29;102917.25;5034674;28;46201;-79
2022/01/18 06:14:58;;;;;;;;;26.50;22.00;;;;;2.86;85.44;102915.44;5055721;28;45442;-80
2022/01/18 06:17:24;;;;;;;;;25.50;24.75;;;;;2.87;85.28;102917.25;5057413;28;45412;-80
2022/01/18 06:19:50;;;;;;;;;33.00;24.50;;;;;2.87;86.00;102918.94;5052553;28;45565;-80
2022/01/18 06:22:16;;;;;;;;;33.25;23.75;;;;;2.85;85.29;102931.94;5018495;28;46738;-80
2022/01/18 06:24:41;;;;;;;;;29.00;22.50;;;;;2.83;85.91;102930.97;5037386;28;45398;-79
2022/01/18 06:27:08;;;;;;;;;23.50;19.50;;;;;2.83;85.16;102925.75;5036530;28;45494;-79
2022/01/18 06:29:33;;;;;;;;;24.00;23.00;;;;;2.81;86.21;102932.63;5042830;28;45334;-79
2022/01/18 06:31:59;;;;;;;;;25.50;23.25;;;;;2.78;85.63;102937.66;5046579;28;46520;-79
2022/01/18 06:34:25;;;;;;;;;20.50;20.50;;;;;2.77;85.17;102928.06;5034716;28;45391;-80
2022/01/18 06:36:51;;;;;;;;;24.25;22.00;;;;;2.76;85.82;102932.38;5034610;28;45399;-80
2022/01/18 06:39:17;;;;;;;;;31.00;24.50;;;;;2.74;84.76;102930.53;5035299;28;45332;-80
2022/01/18 06:41:44;;;;;;;;;26.75;20.25;;;;;2.71;85.38;102930.38;5035846;28;45352;-80
2022/01/18 06:44:09;;;;;;;;;33.00;23.00;;;;;2.69;85.63;102927.69;5037135;28;45570;-80
2022/01/18 06:46:34;;;;;;;;;26.00;18.75;;;;;2.70;85.63;102933.78;5040335;28;45342;-81
2022/01/18 06:49:00;;;;;;;;;22.25;17.50;;;;;2.67;84.97;102934.53;5036592;28;45698;-81
2022/01/18 06:51:25;;;;;;;;;20.50;18.00;;;;;2.69;85.98;102945.06;5034349;28;45312;-81
2022/01/18 06:53:51;;;;;;;;;31.25;25.50;;;;;2.70;85.19;102944.25;5016657;28;45756;-80
2022/01/18 06:56:20;;;;;;;;;18.00;14.00;;;;;2.68;86.32;102941.56;5034733;28;45451;-80
2022/01/18 06:58:46;;;;;;;;;21.50;20.00;;;;;2.62;86.06;102926.47;5035029;28;45419;-80
2022/01/18 07:01:13;;;;;;;;;19.00;18.00;;;;;2.66;85.36;102938.88;5034615;28;46359;-80
2022/01/18 07:03:39;;;;;;;;;30.00;21.00;;;;;2.67;86.25;102942.38;5035466;28;45379;-80
2022/01/18 07:06:05;;;;;;;;;30.50;27.50;;;;;2.65;86.17;102934.44;5004838;28;45508;-80
2022/01/18 07:08:30;;;;;;;;;22.50;18.50;;;;;2.66;86.03;102943.19;5045079;28;44944;-81
2022/01/18 07:10:58;;;;;;;;;27.25;24.00;;;;;2.69;86.25;102938.13;5044846;28;45292;-80
2022/01/18 07:13:24;;;;;;;;;25.25;24.50;;;;;2.71;85.37;102946.03;5040976;28;45388;-81
2022/01/18 07:15:50;;;;;;;;;30.50;28.25;;;;;2.61;85.61;102924.69;5044136;28;45336;-78
2022/01/18 07:18:16;;;;;;;;;27.75;23.50;;;;;2.69;85.26;102934.59;5048456;28;45366;-81
2022/01/18 07:20:41;;;;;;;;;31.25;26.25;;;;;2.72;85.50;102939.97;5041729;28;46337;-80
2022/01/18 07:23:11;;;;;;;;;37.50;24.50;;;;;2.72;85.39;102935.66;5040517;28;45174;-81
2022/01/18 07:25:42;;;;;;;;;30.75;24.75;;;;;2.72;85.84;102930.44;5038491;28;45357;-81
2022/01/18 07:28:07;;;;;;;;;21.75;19.75;;;;;2.74;85.42;102936.63;5037720;28;45555;-80
2022/01/18 07:30:33;;;;;;;;;25.00;19.50;;;;;2.72;86.05;102926.91;5037482;28;46342;-79
2022/01/18 07:32:58;;;;;;;;;32.50;24.00;;;;;2.67;85.30;102917.16;5037249;28;45518;-80
2022/01/18 07:35:27;;;;;;;;;25.50;24.25;;;;;2.78;85.14;102922.00;5048162;28;45518;-81
2022/01/18 07:37:52;;;;;;;;;29.25;25.75;;;;;2.75;85.60;102906.19;5044963;28;45465;-78
2022/01/18 07:40:19;;;;;;;;;24.50;21.75;;;;;2.81;85.09;102917.84;5039049;28;46198;-82
2022/01/18 07:42:44;;;;;;;;;24.00;20.50;;;;;2.80;85.02;102916.03;5002813;28;45435;-80
2022/01/18 07:45:10;;;;;;;;;29.50;23.50;;;;;2.86;85.12;102915.44;5018174;28;45950;-81
2022/01/18 07:47:35;;;;;;;;;29.25;24.25;;;;;2.77;85.07;102892.38;5048474;28;45444;-78
2022/01/18 07:50:00;;;;;;;;;29.50;24.00;;;;;2.88;85.47;102900.72;5036762;28;46077;-80
2022/01/18 07:52:26;;;;;;;;;39.50;27.00;;;;;2.92;84.77;102918.38;5049643;28;45273;-81
2022/01/18 07:54:52;;;;;;;;;24.25;24.00;;;;;2.93;84.34;102912.31;5040178;28;45317;-80
2022/01/18 07:57:19;;;;;;;;;29.75;24.75;;;;;2.97;84.79;102914.25;5039591;28;45434;-81
2022/01/18 07:59:44;;;;;;;;;31.25;25.75;;;;;3.04;85.06;102923.28;5044848;28;46722;-81
2022/01/18 08:02:10;;;;;;;;;26.75;24.50;;;;;3.07;85.00;102925.13;5048249;28;45414;-80
2022/01/18 08:04:35;;;;;;;;;28.25;23.00;;;;;3.07;84.34;102906.84;5038051;28;45991;-79
2022/01/18 08:07:01;;;;;;;;;24.00;20.75;;;;;3.11;83.85;102907.09;5046278;28;45490;-80
2022/01/18 08:09:26;;;;;;;;;36.00;25.25;;;;;3.11;83.92;102891.41;5045297;28;47272;-79
2022/01/18 08:11:52;;;;;;;;;29.00;19.50;;;;;3.24;83.87;102903.31;5049083;28;45481;-78
2022/01/18 08:14:18;;;;;;;;;26.00;21.00;;;;;3.30;84.18;102898.38;5040697;28;45360;-81
2022/01/18 08:17:01;;;;;;;;;30.00;24.00;;;;;3.36;83.91;102898.66;5048715;28;45430;-79
2022/01/18 08:19:35;;;;;;;;;27.75;21.25;;;;;3.46;83.09;102909.56;5055082;28;45726;-81
2022/01/18 08:22:00;;;;;;;;;24.50;23.25;;;;;3.50;83.63;102895.81;5044062;28;45564;-80
2022/01/18 08:24:26;;;;;;;;;31.25;24.25;;;;;3.57;83.20;102897.88;5043176;28;45462;-81
2022/01/18 08:26:53;;;;;;;;;25.00;21.00;;;;;3.68;82.96;102901.88;5038716;28;45344;-81
2022/01/18 08:29:18;;;;;;;;;28.75;25.00;;;;;3.76;83.00;102903.94;5053461;28;45435;-80
2022/01/18 08:31:46;;;;;;;;;31.75;29.25;;;;;3.84;82.17;102897.31;5042133;28;45488;-80
2022/01/18 08:34:12;;;;;;;;;23.75;20.75;;;;;3.94;82.08;102902.16;5047965;28;45500;-80
2022/01/18 08:36:39;;;;;;;;;26.00;19.50;;;;;4.05;81.99;102903.53;5039975;28;45415;-80
2022/01/18 08:39:05;;;;;;;;;28.75;24.25;;;;;4.22;81.50;102908.56;5036433;28;46208;-78
2022/01/18 08:41:30;;;;;;;;;26.50;23.25;;;;;4.28;80.96;102895.75;5025457;28;45534;-79
2022/01/18 08:43:56;;;;;;;;;20.75;19.75;;;;;4.54;80.40;102895.97;5048600;28;45477;-80
2022/01/18 08:46:22;;;;;;;;;29.25;25.00;;;;;4.75;79.54;102896.88;5056408;28;45500;-79
2022/01/18 08:48:47;;;;;;;;;26.50;20.50;;;;;4.88;78.55;102897.38;5050627;28;46261;-79
2022/01/18 08:51:13;;;;;;;;;30.00;23.25;;;;;5.02;77.92;102898.78;5042017;28;45463;-78
2022/01/18 08:53:41;;;;;;;;;24.75;20.25;;;;;5.21;77.50;102900.44;5047568;28;45470;-81
2022/01/18 08:56:07;;;;;;;;;23.00;20.75;;;;;5.36;76.73;102884.41;5048589;28;45447;-79
2022/01/18 08:58:34;;;;;;;;;27.50;21.75;;;;;5.73;75.94;102891.00;5046549;28;45414;-78
2022/01/18 09:01:03;;;;;;;;;21.25;17.25;;;;;5.88;74.72;102895.94;5051046;28;45492;-79
2022/01/18 09:03:29;;;;;;;;;21.00;17.00;;;;;5.87;74.66;102895.03;5049647;28;45517;-79
2022/01/18 09:05:56;;;;;;;;;12.25;10.50;;;;;6.04;75.36;102874.69;5046126;28;45648;-79
2022/01/18 09:08:22;;;;;;;;;21.75;18.75;;;;;6.52;73.36;102888.56;5054213;28;45512;-79
2022/01/18 09:10:48;;;;;;;;;19.75;18.25;;;;;7.43;70.40;102892.28;5001511;28;45519;-79
2022/01/18 09:13:15;;;;;;;;;17.25;17.25;;;;;8.35;68.47;102879.88;5045712;28;45328;-78
2022/01/18 09:15:42;;;;;;;;;21.25;16.50;;;;;9.12;65.74;102880.91;5048869;28;45578;-79
2022/01/18 09:18:07;;;;;;;;;21.50;17.75;;;;;9.63;64.64;102874.09;5046192;28;46158;-78
2022/01/18 09:20:33;;;;;;;;;24.00;19.25;;;;;10.08;63.00;102875.81;5040202;28;45461;-80
2022/01/18 09:22:58;;;;;;;;;20.25;16.25;;;;;10.65;60.33;102874.19;5043106;28;45460;-79
2022/01/18 09:25:29;;;;;;;;;24.50;19.75;;;;;11.17;60.43;102874.09;5035132;28;45559;-80
2022/01/18 09:27:56;;;;;;;;;20.75;17.00;;;;;11.47;57.74;102868.31;5043666;28;46400;-78
2022/01/18 09:30:26;;;;;;;;;23.75;18.50;;;;;11.71;56.68;102848.31;5039737;28;45581;-80
2022/01/18 09:32:52;;;;;;;;;19.50;13.00;;;;;11.84;56.13;102863.47;5027483;28;45561;-78
2022/01/18 09:35:18;;;;;;;;;24.25;20.25;;;;;11.90;55.92;102863.53;5037592;28;45502;-79
2022/01/18 09:37:45;;;;;;;;;21.75;19.00;;;;;12.04;55.26;102860.16;5040557;28;45483;-79
2022/01/18 09:40:16;;;;;;;;;18.75;13.75;;;;;12.18;54.58;102862.97;5044616;28;45474;-80
2022/01/18 09:42:43;;;;;;;;;24.75;21.00;;;;;12.23;54.72;102854.16;5054256;28;45324;-80
2022/01/18 09:45:15;;;;;;;;;17.50;17.50;;;;;12.23;54.86;102846.19;5055374;28;45614;-79
2022/01/18 09:47:45;;;;;;;;;15.75;15.00;;;;;12.10;54.07;102854.94;5045633;28;45386;-79
2022/01/18 09:50:13;;;;;;;;;17.00;16.00;;;;;11.73;54.96;102865.09;5034385;28;45530;-80
2022/01/18 09:52:39;;;;;;;;;19.00;18.50;;;;;11.70;55.24;102865.94;5037780;28;45525;-79
2022/01/18 09:55:07;;;;;;;;;21.00;17.00;;;;;11.79;55.28;102857.22;5034151;28;45661;-79
2022/01/18 09:57:34;;;;;;;;;26.50;23.75;;;;;11.96;55.20;102868.03;5032147;28;45457;-78
2022/01/18 09:59:59;;;;;;;;;15.50;15.50;;;;;12.23;54.04;102870.06;5049057;28;45524;-79
2022/01/18 10:02:26;;;;;;;;;26.50;22.00;;;;;12.38;53.37;102861.34;5028653;28;45470;-79
2022/01/18 10:04:53;;;;;;;;;22.25;16.25;;;;;12.54;53.60;102851.78;5037303;28;45456;-79
2022/01/18 10:07:34;;;;;;;;;21.25;16.50;;;;;13.17;52.21;102859.25;5049547;28;46174;-80
2022/01/18 10:10:03;;;;;;;;;16.00;10.25;;;;;13.11;51.62;102861.88;5046838;28;45482;-80
2022/01/18 10:12:29;;;;;;;;;22.50;17.75;;;;;12.90;52.46;102858.19;5047218;28;45658;-80
2022/01/18 10:14:56;;;;;;;;;14.00;12.50;;;;;13.23;51.78;102853.97;5055345;28;45466;-80
2022/01/18 10:17:42;;;;;;;;;30.50;25.50;;;;;13.48;51.20;102849.72;5045117;28;46260;-79
2022/01/18 10:20:12;;;;;;;;;24.50;18.75;;;;;13.58;50.59;102845.28;5046707;28;45415;-79
2022/01/18 10:22:43;;;;;;;;;26.75;18.75;;;;;13.49;51.23;102851.47;5037691;28;45481;-78
2022/01/18 10:25:19;;;;;;;;;19.50;18.25;;;;;13.48;51.31;102839.06;5047576;28;45588;-79
2022/01/18 10:27:49;;;;;;;;;20.75;18.75;;;;;13.41;51.26;102847.03;5025652;28;45453;-79
2022/01/18 10:30:23;;;;;;;;;18.50;18.50;;;;;13.59;51.46;102847.09;5043382;28;45391;-80
2022/01/18 10:33:11;;;;;;;;;29.50;22.50;;;;;13.92;49.65;102840.06;5049634;28;45513;-78
2022/01/18 10:36:12;;;;;;;;;23.75;20.50;;;;;14.10;49.72;102844.53;5044302;28;45651;-79
2022/01/18 10:38:44;;;;;;;;;25.00;22.75;;;;;14.13;49.08;102823.25;5028991;28;46349;-78
2022/01/18 10:41:32;;;;;;;;;28.50;23.25;;;;;14.22;48.97;102828.56;5039435;28;45573;-79
2022/01/18 10:44:06;;;;;;;;;19.75;17.00;;;;;14.45;48.92;102814.38;5035702;28;45301;-79
2022/01/18 10:46:42;;;;;;;;;19.75;17.25;;;;;14.69;47.70;102799.31;5000574;28;45367;-80
2022/01/18 10:49:09;;;;;;;;;29.00;18.75;;;;;14.48;47.49;102797.53;5003450;28;46593;-79
2022/01/18 10:51:38;;;;;;;;;21.75;18.50;;;;;14.65;47.54;102800.19;5012592;28;44679;-79
2022/01/18 10:54:07;;;;;;;;;23.00;20.25;;;;;14.68;47.25;102790.47;5011197;28;45450;-79
2022/01/18 10:56:49;;;;;;;;;19.00;18.00;;;;;14.90;46.97;102774.41;5003614;28;45455;-80
2022/01/18 10:59:25;;;;;;;;;34.00;28.50;;;;;14.89;46.58;102777.97;5008732;28;45442;-77
2022/01/18 11:02:10;;;;;;;;;24.75;21.25;;;;;14.36;47.09;102762.09;5016455;28;45556;-77
2022/01/18 11:04:35;;;;;;;;;14.50;12.50;;;;;13.92;47.94;102780.69;5010020;28;45534;-77
2022/01/18 11:07:03;;;;;;;;;22.00;20.25;;;;;13.76;48.35;102780.69;5011423;28;45721;-77
2022/01/18 11:09:29;;;;;;;;;34.50;33.50;;;;;13.99;48.24;102774.50;4997040;28;45453;-77
2022/01/18 11:11:55;;;;;;;;;22.00;18.75;;;;;14.32;47.70;102760.31;5002677;28;45532;-78
2022/01/18 11:14:22;;;;;;;;;20.00;16.00;;;;;14.58;46.79;102764.72;4997743;28;45569;-77
2022/01/18 11:16:50;;;;;;;;;28.50;24.75;;;;;14.68;46.56;102758.53;5017355;28;45334;-77
2022/01/18 11:21:54;;;;;;;;;16.50;14.00;;;;;14.32;46.13;102762.97;5014597;28;45461;-76
2022/01/18 11:24:20;;;;;;;;;21.00;20.75;;;;;14.15;46.39;102755.03;4998308;28;45489;-80
2022/01/18 11:26:47;;;;;;;;;18.00;15.00;;;;;13.98;46.21;102723.13;5008746;28;45666;-80
2022/01/18 11:29:19;;;;;;;;;21.50;15.00;;;;;13.96;47.09;102730.19;5002776;28;46157;-79
2022/01/18 11:31:45;;;;;;;;;14.50;14.50;;;;;14.12;46.33;102731.09;5000606;28;45439;-80
2022/01/18 11:34:16;;;;;;;;;15.00;13.00;;;;;13.89;46.00;102727.53;5008202;28;45444;-79
2022/01/18 11:36:48;;;;;;;;;27.00;24.25;;;;;13.97;46.54;102704.50;4992368;28;45555;-81
2022/01/18 11:39:17;;;;;;;;;39.00;33.50;;;;;14.04;46.31;102716.91;5001816;28;46086;-76
2022/01/18 11:41:43;;;;;;;;;14.00;13.00;;;;;13.93;46.01;102714.25;4995733;28;45523;-77
2022/01/18 11:44:26;;;;;;;;;11.75;11.75;;;;;13.94;46.15;102697.41;5001230;28;45617;-76
2022/01/18 11:46:55;;;;;;;;;12.00;10.50;;;;;13.92;46.52;102707.13;5020877;28;45521;-77
2022/01/18 11:49:29;;;;;;;;;14.50;11.00;;;;;13.80;46.33;102712.47;5038456;28;46353;-79
2022/01/18 11:52:06;;;;;;;;;18.50;16.00;;;;;13.73;46.96;102702.75;5049749;28;45884;-76
2022/01/18 11:57:23;;;;;;;;;14.00;12.75;;;;;13.81;46.18;102698.31;5046465;28;45435;-84
2022/01/18 11:59:51;;;;;;;;;18.25;15.00;;;;;14.01;45.98;102677.00;5043262;28;45799;-80
2022/01/18 12:02:43;;;;;;;;;9.75;6.50;;;;;14.42;45.13;102685.81;5048284;28;45597;-80
2022/01/18 12:05:20;;;;;;;;;9.50;9.25;;;;;14.30;44.80;102670.75;5044188;28;45416;-79
2022/01/18 12:07:51;;;;;;;;;31.00;27.50;;;;;14.17;44.91;102648.66;5047078;28;45549;-81
2022/01/18 12:10:19;;;;;;;;;8.50;8.50;;;;;14.14;44.73;102677.91;5052403;28;45437;-80
2022/01/18 12:12:46;;;;;;;;;19.25;12.25;;;;;14.12;44.74;102671.69;5048243;28;45302;-80
2022/01/18 12:15:26;;;;;;;;;20.00;14.00;;;;;13.93;45.39;102670.84;5053368;28;45505;-79
2022/01/18 12:18:13;;;;;;;;;8.00;8.00;;;;;13.88;44.27;102657.56;5041225;28;45463;-79
2022/01/18 12:20:43;;;;;;;;;33.25;27.75;;;;;14.02;45.24;102649.56;5036808;28;45461;-79
2022/01/18 12:23:12;;;;;;;;;13.50;11.25;;;;;14.40;44.38;102649.44;5053709;28;45394;-80
2022/01/18 12:26:01;;;;;;;;;16.00;13.50;;;;;14.65;43.97;102654.75;5048616;28;45497;-80
2022/01/18 12:34:24;;;;;;;;;20.50;17.75;;;;;14.30;44.02;102625.53;4956257;28;45476;-80
2022/01/18 12:36:51;;;;;;;;;39.75;33.50;;;;;14.04;44.62;102638.03;4966814;28;45536;-80
2022/01/18 12:39:17;;;;;;;;;15.75;13.00;;;;;13.80;46.04;102620.34;4940372;28;45311;-80
2022/01/18 12:41:51;;;;;;;;;14.00;13.75;;;;;13.47;46.56;102619.47;4960569;28;46303;-81